sensor_id;sensor_type;location;lat;lon;timestamp;pressure;altitude;pressure_sealevel;temperature;humidity
788;BME280;16074;42.708;23.312;2023-04-29T00:00:38;140374.75;;;8.55;75.36
788;BME280;16074;42.708;23.312;2023-04-29T00:03:06;140379.56;;;8.57;74.68
788;BME280;16074;42.708;23.312;2023-04-29T00:05:35;140406.03;;;8.68;74.11
788;BME280;16074;42.708;23.312;2023-04-29T00:08:04;140389.19;;;8.61;75.32
788;BME280;16074;42.708;23.312;2023-04-29T00:10:32;140366.38;;;8.52;74.87
788;BME280;16074;42.708;23.312;2023-04-29T00:13:02;140366.38;;;8.52;74.03
788;BME280;16074;42.708;23.312;2023-04-29T00:15:30;140368.78;;;8.53;74.38
788;BME280;16074;42.708;23.312;2023-04-29T00:17:59;140386.78;;;8.60;73.58
788;BME280;16074;42.708;23.312;2023-04-29T00:20:27;140349.53;;;8.45;74.18
788;BME280;16074;42.708;23.312;2023-04-29T00:22:55;140329.13;;;8.36;72.95
788;BME280;16074;42.708;23.312;2023-04-29T00:25:24;140297.88;;;8.24;74.24
788;BME280;16074;42.708;23.312;2023-04-29T00:27:53;140270.22;;;8.12;74.94
788;BME280;16074;42.708;23.312;2023-04-29T00:30:22;140266.59;;;8.11;74.97
788;BME280;16074;42.708;23.312;2023-04-29T00:32:50;140281.06;;;8.17;74.47
788;BME280;16074;42.708;23.312;2023-04-29T00:35:19;140248.59;;;8.03;75.59
788;BME280;16074;42.708;23.312;2023-04-29T00:37:47;140226.97;;;7.94;76.70
788;BME280;16074;42.708;23.312;2023-04-29T00:40:15;140247.38;;;8.03;75.54
788;BME280;16074;42.708;23.312;2023-04-29T00:42:44;140237.75;;;7.99;76.42
788;BME280;16074;42.708;23.312;2023-04-29T00:45:12;140244.97;;;8.02;76.66
788;BME280;16074;42.708;23.312;2023-04-29T00:47:42;140240.16;;;8.00;76.80
788;BME280;16074;42.708;23.312;2023-04-29T00:50:10;140236.56;;;7.98;76.40
788;BME280;16074;42.708;23.312;2023-04-29T00:52:39;140225.72;;;7.94;75.62
788;BME280;16074;42.708;23.312;2023-04-29T00:55:07;140225.72;;;7.94;76.34
788;BME280;16074;42.708;23.312;2023-04-29T00:57:36;140230.53;;;7.96;76.71
788;BME280;16074;42.708;23.312;2023-04-29T01:00:06;140207.75;;;7.86;77.23
788;BME280;16074;42.708;23.312;2023-04-29T01:02:36;140201.75;;;7.84;76.14
788;BME280;16074;42.708;23.312;2023-04-29T01:05:06;140135.72;;;7.56;76.52
788;BME280;16074;42.708;23.312;2023-04-29T01:07:42;140154.94;;;7.64;76.88
788;BME280;16074;42.708;23.312;2023-04-29T01:10:15;140150.13;;;7.62;77.55
788;BME280;16074;42.708;23.312;2023-04-29T01:12:50;140163.31;;;7.68;77.79
788;BME280;16074;42.708;23.312;2023-04-29T01:15:31;140157.28;;;7.65;78.30
788;BME280;16074;42.708;23.312;2023-04-29T01:18:04;140177.72;;;7.74;77.58
788;BME280;16074;42.708;23.312;2023-04-29T01:20:35;140169.31;;;7.70;77.60
788;BME280;16074;42.708;23.312;2023-04-29T01:23:04;140139.28;;;7.58;79.23
788;BME280;16074;42.708;23.312;2023-04-29T01:25:35;140154.94;;;7.64;78.56
788;BME280;16074;42.708;23.312;2023-04-29T01:28:20;140144.09;;;7.60;78.08
788;BME280;16074;42.708;23.312;2023-04-29T01:30:59;140104.50;;;7.43;79.25
788;BME280;16074;42.708;23.312;2023-04-29T01:33:39;140096.06;;;7.40;79.67
788;BME280;16074;42.708;23.312;2023-04-29T01:36:17;140082.88;;;7.34;80.74
788;BME280;16074;42.708;23.312;2023-04-29T01:38:52;140090.09;;;7.37;80.21
788;BME280;16074;42.708;23.312;2023-04-29T01:41:34;140096.06;;;7.40;80.61
788;BME280;16074;42.708;23.312;2023-04-29T01:44:15;140103.25;;;7.43;80.41
788;BME280;16074;42.708;23.312;2023-04-29T01:46:50;140096.06;;;7.40;81.15
788;BME280;16074;42.708;23.312;2023-04-29T01:49:23;140093.66;;;7.39;82.16
788;BME280;16074;42.708;23.312;2023-04-29T01:51:52;140103.25;;;7.43;82.00
788;BME280;16074;42.708;23.312;2023-04-29T01:54:20;140099.69;;;7.41;81.48
788;BME280;16074;42.708;23.312;2023-04-29T01:56:50;140091.25;;;7.38;81.87
788;BME280;16074;42.708;23.312;2023-04-29T01:59:30;140102.09;;;7.42;80.84
788;BME280;16074;42.708;23.312;2023-04-29T02:02:14;140079.28;;;7.33;82.31
788;BME280;16074;42.708;23.312;2023-04-29T02:04:55;140080.47;;;7.33;81.79
788;BME280;16074;42.708;23.312;2023-04-29T02:07:24;140076.91;;;7.32;81.88
788;BME280;16074;42.708;23.312;2023-04-29T02:09:52;140056.47;;;7.23;82.40
788;BME280;16074;42.708;23.312;2023-04-29T02:12:23;140025.25;;;7.10;81.07
788;BME280;16074;42.708;23.312;2023-04-29T02:14:51;140026.47;;;7.11;80.81
788;BME280;16074;42.708;23.312;2023-04-29T02:17:20;140015.69;;;7.07;80.42
788;BME280;16074;42.708;23.312;2023-04-29T02:19:49;139989.28;;;6.96;79.42
788;BME280;16074;42.708;23.312;2023-04-29T02:22:17;139990.47;;;6.96;79.79
788;BME280;16074;42.708;23.312;2023-04-29T02:24:47;139972.47;;;6.89;79.21
788;BME280;16074;42.708;23.312;2023-04-29T02:27:15;139959.25;;;6.83;78.72
788;BME280;16074;42.708;23.312;2023-04-29T02:29:45;139900.47;;;6.59;79.12
788;BME280;16074;42.708;23.312;2023-04-29T02:32:13;139904.09;;;6.60;79.65
788;BME280;16074;42.708;23.312;2023-04-29T02:34:42;139898.06;;;6.58;81.20
788;BME280;16074;42.708;23.312;2023-04-29T02:37:10;139836.91;;;6.32;80.89
788;BME280;16074;42.708;23.312;2023-04-29T02:39:39;139812.97;;;6.22;81.75
788;BME280;16074;42.708;23.312;2023-04-29T02:42:07;139757.78;;;5.99;82.99
788;BME280;16074;42.708;23.312;2023-04-29T02:44:35;139757.78;;;5.99;85.01
788;BME280;16074;42.708;23.312;2023-04-29T02:47:05;139772.19;;;6.05;85.13
788;BME280;16074;42.708;23.312;2023-04-29T02:49:52;139791.38;;;6.13;84.88
788;BME280;16074;42.708;23.312;2023-04-29T02:52:39;139782.97;;;6.10;85.17
788;BME280;16074;42.708;23.312;2023-04-29T02:55:08;139796.19;;;6.15;85.03
788;BME280;16074;42.708;23.312;2023-04-29T02:57:36;139799.75;;;6.17;84.56
788;BME280;16074;42.708;23.312;2023-04-29T03:00:06;139802.16;;;6.18;83.93
788;BME280;16074;42.708;23.312;2023-04-29T03:02:36;139811.75;;;6.22;84.77
788;BME280;16074;42.708;23.312;2023-04-29T03:05:05;139841.72;;;6.34;83.63
788;BME280;16074;42.708;23.312;2023-04-29T03:07:33;139827.31;;;6.28;84.70
788;BME280;16074;42.708;23.312;2023-04-29T03:10:02;139817.72;;;6.24;84.88
788;BME280;16074;42.708;23.312;2023-04-29T03:12:31;139794.94;;;6.15;85.59
788;BME280;16074;42.708;23.312;2023-04-29T03:15:01;139812.97;;;6.22;86.00
788;BME280;16074;42.708;23.312;2023-04-29T03:17:29;139817.72;;;6.24;85.92
788;BME280;16074;42.708;23.312;2023-04-29T03:19:59;139772.19;;;6.05;86.12
788;BME280;16074;42.708;23.312;2023-04-29T03:22:27;139769.78;;;6.04;86.88
788;BME280;16074;42.708;23.312;2023-04-29T03:24:56;139743.41;;;5.93;88.51
788;BME280;16074;42.708;23.312;2023-04-29T03:27:25;139732.63;;;5.89;89.64
788;BME280;16074;42.708;23.312;2023-04-29T03:29:53;139744.63;;;5.94;89.69
788;BME280;16074;42.708;23.312;2023-04-29T03:32:22;139754.19;;;5.98;89.30
788;BME280;16074;42.708;23.312;2023-04-29T03:34:51;139723.06;;;5.85;87.72
788;BME280;16074;42.708;23.312;2023-04-29T03:37:40;139727.84;;;5.87;87.45
788;BME280;16074;42.708;23.312;2023-04-29T03:40:23;139744.63;;;5.94;88.62
788;BME280;16074;42.708;23.312;2023-04-29T03:42:51;139767.38;;;6.03;87.72
788;BME280;16074;42.708;23.312;2023-04-29T03:45:20;139781.78;;;6.09;88.30
788;BME280;16074;42.708;23.312;2023-04-29T03:47:48;139811.75;;;6.22;87.09
788;BME280;16074;42.708;23.312;2023-04-29T03:50:16;139824.91;;;6.27;87.51
788;BME280;16074;42.708;23.312;2023-04-29T03:52:47;139830.94;;;6.30;86.77
788;BME280;16074;42.708;23.312;2023-04-29T03:55:17;139864.53;;;6.44;86.24
788;BME280;16074;42.708;23.312;2023-04-29T03:57:46;139881.31;;;6.51;86.43
788;BME280;16074;42.708;23.312;2023-04-29T04:00:17;139902.88;;;6.60;86.11
788;BME280;16074;42.708;23.312;2023-04-29T04:02:51;139923.28;;;6.68;85.95
788;BME280;16074;42.708;23.312;2023-04-29T04:05:20;139919.66;;;6.67;84.51
788;BME280;16074;42.708;23.312;2023-04-29T04:08:01;139928.09;;;6.70;83.75
788;BME280;16074;42.708;23.312;2023-04-29T04:10:52;139928.09;;;6.70;85.00
788;BME280;16074;42.708;23.312;2023-04-29T04:13:40;139976.06;;;6.90;84.20
788;BME280;16074;42.708;23.312;2023-04-29T04:16:10;139983.25;;;6.93;84.06
788;BME280;16074;42.708;23.312;2023-04-29T04:18:38;139978.44;;;6.91;84.24
788;BME280;16074;42.708;23.312;2023-04-29T04:21:08;139979.69;;;6.92;83.76
788;BME280;16074;42.708;23.312;2023-04-29T04:23:40;140002.47;;;7.01;83.93
788;BME280;16074;42.708;23.312;2023-04-29T04:26:12;139995.25;;;6.98;83.87
788;BME280;16074;42.708;23.312;2023-04-29T04:29:04;140021.66;;;7.09;84.09
788;BME280;16074;42.708;23.312;2023-04-29T04:31:43;140078.06;;;7.32;81.89
788;BME280;16074;42.708;23.312;2023-04-29T04:34:14;140075.66;;;7.31;82.12
788;BME280;16074;42.708;23.312;2023-04-29T04:36:44;140064.88;;;7.27;81.98
788;BME280;16074;42.708;23.312;2023-04-29T04:39:14;140103.25;;;7.43;81.66
788;BME280;16074;42.708;23.312;2023-04-29T04:41:42;140114.09;;;7.47;81.10
788;BME280;16074;42.708;23.312;2023-04-29T04:44:10;140109.28;;;7.45;80.29
788;BME280;16074;42.708;23.312;2023-04-29T04:46:59;140114.09;;;7.47;80.48
788;BME280;16074;42.708;23.312;2023-04-29T04:49:50;140135.72;;;7.56;79.76
788;BME280;16074;42.708;23.312;2023-04-29T04:52:20;140116.50;;;7.48;80.19
788;BME280;16074;42.708;23.312;2023-04-29T04:55:10;140162.09;;;7.67;79.71
788;BME280;16074;42.708;23.312;2023-04-29T04:57:43;140188.50;;;7.78;79.36
788;BME280;16074;42.708;23.312;2023-04-29T05:00:12;140178.91;;;7.74;79.49
788;BME280;16074;42.708;23.312;2023-04-29T05:02:41;140198.13;;;7.82;78.93
788;BME280;16074;42.708;23.312;2023-04-29T05:05:09;140246.19;;;8.02;78.11
788;BME280;16074;42.708;23.312;2023-04-29T05:07:40;140260.59;;;8.08;78.41
788;BME280;16074;42.708;23.312;2023-04-29T05:10:10;140295.47;;;8.23;77.56
788;BME280;16074;42.708;23.312;2023-04-29T05:12:47;140327.91;;;8.36;76.57
788;BME280;16074;42.708;23.312;2023-04-29T05:15:15;140363.97;;;8.51;76.02
788;BME280;16074;42.708;23.312;2023-04-29T05:17:47;140380.78;;;8.58;73.99
788;BME280;16074;42.708;23.312;2023-04-29T05:20:15;140412.06;;;8.71;73.74
788;BME280;16074;42.708;23.312;2023-04-29T05:22:44;140421.69;;;8.75;72.38
788;BME280;16074;42.708;23.312;2023-04-29T05:25:14;140434.88;;;8.80;72.67
788;BME280;16074;42.708;23.312;2023-04-29T05:27:42;140470.94;;;8.95;73.01
788;BME280;16074;42.708;23.312;2023-04-29T05:30:14;140479.34;;;8.99;72.24
788;BME280;16074;42.708;23.312;2023-04-29T05:32:45;140523.84;;;9.17;72.27
788;BME280;16074;42.708;23.312;2023-04-29T05:35:17;140553.94;;;9.30;71.33
788;BME280;16074;42.708;23.312;2023-04-29T05:37:45;140575.53;;;9.39;70.54
788;BME280;16074;42.708;23.312;2023-04-29T05:40:23;140573.13;;;9.38;69.29
788;BME280;16074;42.708;23.312;2023-04-29T05:42:57;140624.91;;;9.59;69.05
788;BME280;16074;42.708;23.312;2023-04-29T05:45:25;140632.13;;;9.62;69.22
788;BME280;16074;42.708;23.312;2023-04-29T05:47:54;140676.63;;;9.80;68.85
788;BME280;16074;42.708;23.312;2023-04-29T05:50:22;140685.03;;;9.84;68.13
788;BME280;16074;42.708;23.312;2023-04-29T05:52:51;140677.81;;;9.81;67.72
788;BME280;16074;42.708;23.312;2023-04-29T05:55:23;140700.69;;;9.90;67.88
788;BME280;16074;42.708;23.312;2023-04-29T05:57:51;140735.63;;;10.05;66.97
788;BME280;16074;42.708;23.312;2023-04-29T06:00:19;140757.31;;;10.14;66.16
788;BME280;16074;42.708;23.312;2023-04-29T06:02:50;140783.75;;;10.25;65.91
788;BME280;16074;42.708;23.312;2023-04-29T06:05:26;140825.91;;;10.42;64.95
788;BME280;16074;42.708;23.312;2023-04-29T06:08:13;140849.94;;;10.52;64.38
788;BME280;16074;42.708;23.312;2023-04-29T06:10:45;140848.78;;;10.52;63.30
788;BME280;16074;42.708;23.312;2023-04-29T06:13:14;140863.22;;;10.58;63.88
788;BME280;16074;42.708;23.312;2023-04-29T06:15:43;140884.91;;;10.67;63.03
788;BME280;16074;42.708;23.312;2023-04-29T06:18:13;140886.09;;;10.67;62.38
788;BME280;16074;42.708;23.312;2023-04-29T06:20:41;140937.88;;;10.88;62.49
788;BME280;16074;42.708;23.312;2023-04-29T06:23:10;140970.44;;;11.02;61.15
788;BME280;16074;42.708;23.312;2023-04-29T06:25:38;140983.66;;;11.07;61.25
788;BME280;16074;42.708;23.312;2023-04-29T06:28:09;141005.34;;;11.16;61.45
788;BME280;16074;42.708;23.312;2023-04-29T06:30:38;141025.81;;;11.25;61.00
788;BME280;16074;42.708;23.312;2023-04-29T06:33:07;141058.34;;;11.38;59.96
788;BME280;16074;42.708;23.312;2023-04-29T06:35:38;141096.97;;;11.54;60.42
788;BME280;16074;42.708;23.312;2023-04-29T06:38:22;141135.53;;;11.70;59.49
788;BME280;16074;42.708;23.312;2023-04-29T06:41:10;141124.66;;;11.66;58.18
788;BME280;16074;42.708;23.312;2023-04-29T06:44:15;141117.44;;;11.63;58.43
788;BME280;16074;42.708;23.312;2023-04-29T06:46:58;141140.38;;;11.72;58.36
788;BME280;16074;42.708;23.312;2023-04-29T06:49:47;141186.13;;;11.91;56.80
788;BME280;16074;42.708;23.312;2023-04-29T06:52:15;141172.91;;;11.86;57.98
788;BME280;16074;42.708;23.312;2023-04-29T06:54:45;141153.59;;;11.78;58.21
788;BME280;16074;42.708;23.312;2023-04-29T06:57:13;141177.72;;;11.88;58.02
788;BME280;16074;42.708;23.312;2023-04-29T06:59:46;141199.44;;;11.96;57.31
788;BME280;16074;42.708;23.312;2023-04-29T07:02:14;141207.84;;;12.00;56.98
788;BME280;16074;42.708;23.312;2023-04-29T07:04:46;141190.97;;;11.93;56.24
788;BME280;16074;42.708;23.312;2023-04-29T07:07:15;141193.38;;;11.94;57.22
788;BME280;16074;42.708;23.312;2023-04-29T07:09:43;141221.16;;;12.05;56.74
788;BME280;16074;42.708;23.312;2023-04-29T07:12:12;141300.72;;;12.38;55.54
788;BME280;16074;42.708;23.312;2023-04-29T07:14:40;141314.00;;;12.44;55.39
788;BME280;16074;42.708;23.312;2023-04-29T07:17:10;141357.41;;;12.62;54.72
788;BME280;16074;42.708;23.312;2023-04-29T07:19:41;141385.19;;;12.73;54.75
788;BME280;16074;42.708;23.312;2023-04-29T07:22:09;141452.78;;;13.01;53.56
788;BME280;16074;42.708;23.312;2023-04-29T07:24:38;141513.16;;;13.26;53.17
788;BME280;16074;42.708;23.312;2023-04-29T07:27:06;141498.66;;;13.20;53.22
788;BME280;16074;42.708;23.312;2023-04-29T07:29:35;141583.16;;;13.55;53.06
788;BME280;16074;42.708;23.312;2023-04-29T07:32:04;141676.16;;;13.93;52.22
788;BME280;16074;42.708;23.312;2023-04-29T07:34:36;141758.31;;;14.27;51.16
788;BME280;16074;42.708;23.312;2023-04-29T07:37:04;141848.97;;;14.64;50.39
788;BME280;16074;42.708;23.312;2023-04-29T07:39:32;142009.78;;;15.31;47.69
788;BME280;16074;42.708;23.312;2023-04-29T07:42:02;142100.53;;;15.68;46.38
788;BME280;16074;42.708;23.312;2023-04-29T07:44:30;142223.94;;;16.19;45.40
788;BME280;16074;42.708;23.312;2023-04-29T07:46:59;142288.13;;;16.45;43.82
788;BME280;16074;42.708;23.312;2023-04-29T07:49:27;142194.94;;;16.07;44.01
788;BME280;16074;42.708;23.312;2023-04-29T07:51:57;142170.72;;;15.97;43.57
788;BME280;16074;42.708;23.312;2023-04-29T07:54:25;142186.44;;;16.03;44.52
788;BME280;16074;42.708;23.312;2023-04-29T07:56:53;142230.00;;;16.21;43.87
788;BME280;16074;42.708;23.312;2023-04-29T07:59:21;142342.66;;;16.68;42.34
788;BME280;16074;42.708;23.312;2023-04-29T08:01:50;142437.13;;;17.06;42.04
788;BME280;16074;42.708;23.312;2023-04-29T08:04:20;142432.25;;;17.04;41.93
788;BME280;16074;42.708;23.312;2023-04-29T08:06:58;142525.59;;;17.43;41.62
788;BME280;16074;42.708;23.312;2023-04-29T08:09:27;142631.00;;;17.86;41.42
788;BME280;16074;42.708;23.312;2023-04-29T08:11:55;142740.19;;;18.31;40.22
788;BME280;16074;42.708;23.312;2023-04-29T08:14:24;142844.50;;;18.74;38.92
788;BME280;16074;42.708;23.312;2023-04-29T08:16:53;142876.03;;;18.87;38.29
788;BME280;16074;42.708;23.312;2023-04-29T08:19:21;142901.50;;;18.97;37.07
788;BME280;16074;42.708;23.312;2023-04-29T08:21:49;142980.44;;;19.29;35.91
788;BME280;16074;42.708;23.312;2023-04-29T08:24:19;143042.31;;;19.55;36.15
788;BME280;16074;42.708;23.312;2023-04-29T08:26:48;143093.34;;;19.76;34.18
788;BME280;16074;42.708;23.312;2023-04-29T08:29:17;143121.25;;;19.87;34.84
788;BME280;16074;42.708;23.312;2023-04-29T08:31:45;143141.88;;;19.96;35.39
788;BME280;16074;42.708;23.312;2023-04-29T08:34:13;143191.69;;;20.16;35.87
788;BME280;16074;42.708;23.312;2023-04-29T08:36:42;143218.44;;;20.27;36.21
788;BME280;16074;42.708;23.312;2023-04-29T08:39:10;143311.97;;;20.65;35.26
788;BME280;16074;42.708;23.312;2023-04-29T08:41:40;143352.13;;;20.82;34.27
788;BME280;16074;42.708;23.312;2023-04-29T08:44:10;143415.34;;;21.08;34.35
788;BME280;16074;42.708;23.312;2023-04-29T08:46:38;143322.91;;;20.70;34.53
788;BME280;16074;42.708;23.312;2023-04-29T08:49:07;143367.94;;;20.88;34.15
788;BME280;16074;42.708;23.312;2023-04-29T08:51:35;143422.63;;;21.11;34.29
788;BME280;16074;42.708;23.312;2023-04-29T08:54:03;143457.88;;;21.25;33.97
788;BME280;16074;42.708;23.312;2023-04-29T08:56:32;143456.63;;;21.25;33.57
788;BME280;16074;42.708;23.312;2023-04-29T08:59:03;143502.84;;;21.44;32.41
788;BME280;16074;42.708;23.312;2023-04-29T09:01:35;143416.53;;;21.08;33.19
788;BME280;16074;42.708;23.312;2023-04-29T09:04:11;143472.47;;;21.31;32.89
788;BME280;16074;42.708;23.312;2023-04-29T09:06:40;143521.13;;;21.51;31.60
788;BME280;16074;42.708;23.312;2023-04-29T09:09:08;143530.81;;;21.55;31.52
788;BME280;16074;42.708;23.312;2023-04-29T09:11:37;143518.69;;;21.50;31.86
788;BME280;16074;42.708;23.312;2023-04-29T09:14:07;143449.38;;;21.22;32.97
788;BME280;16074;42.708;23.312;2023-04-29T09:16:35;143417.78;;;21.09;33.34
788;BME280;16074;42.708;23.312;2023-04-29T09:19:04;143415.34;;;21.08;33.55
788;BME280;16074;42.708;23.312;2023-04-29T09:21:33;143440.84;;;21.18;33.59
788;BME280;16074;42.708;23.312;2023-04-29T09:24:02;143415.34;;;21.08;33.16
788;BME280;16074;42.708;23.312;2023-04-29T09:26:41;143408.03;;;21.05;33.88
788;BME280;16074;42.708;23.312;2023-04-29T09:29:12;143410.47;;;21.06;33.14
788;BME280;16074;42.708;23.312;2023-04-29T09:31:42;143387.34;;;20.96;33.16
788;BME280;16074;42.708;23.312;2023-04-29T09:34:10;143333.88;;;20.74;34.05
788;BME280;16074;42.708;23.312;2023-04-29T09:36:41;143339.91;;;20.77;33.49
788;BME280;16074;42.708;23.312;2023-04-29T09:39:12;143335.06;;;20.75;34.71
788;BME280;16074;42.708;23.312;2023-04-29T09:41:55;143310.78;;;20.65;33.32
788;BME280;16074;42.708;23.312;2023-04-29T09:44:27;143421.41;;;21.10;32.85
788;BME280;16074;42.708;23.312;2023-04-29T09:47:01;143448.16;;;21.21;33.19
788;BME280;16074;42.708;23.312;2023-04-29T09:49:31;143561.28;;;21.68;33.30
788;BME280;16074;42.708;23.312;2023-04-29T09:52:02;143652.50;;;22.05;32.21
788;BME280;16074;42.708;23.312;2023-04-29T09:54:32;143788.84;;;22.61;31.38
788;BME280;16074;42.708;23.312;2023-04-29T09:57:02;143734.03;;;22.38;29.38
788;BME280;16074;42.708;23.312;2023-04-29T09:59:35;143607.47;;;21.86;30.03
788;BME280;16074;42.708;23.312;2023-04-29T10:02:06;143729.22;;;22.36;29.55
788;BME280;16074;42.708;23.312;2023-04-29T10:04:39;143714.56;;;22.30;30.63
788;BME280;16074;42.708;23.312;2023-04-29T10:07:08;143575.88;;;21.73;31.96
788;BME280;16074;42.708;23.312;2023-04-29T10:09:40;143642.78;;;22.01;32.14
788;BME280;16074;42.708;23.312;2023-04-29T10:12:09;143603.84;;;21.85;32.51
788;BME280;16074;42.708;23.312;2023-04-29T10:14:43;143674.38;;;22.14;32.54
788;BME280;16074;42.708;23.312;2023-04-29T10:17:15;143731.66;;;22.37;32.86
788;BME280;16074;42.708;23.312;2023-04-29T10:19:49;143781.53;;;22.58;31.77
788;BME280;16074;42.708;23.312;2023-04-29T10:22:25;143820.44;;;22.74;31.57
788;BME280;16074;42.708;23.312;2023-04-29T10:24:56;143864.28;;;22.92;31.00
788;BME280;16074;42.708;23.312;2023-04-29T10:27:26;143883.75;;;22.99;30.56
788;BME280;16074;42.708;23.312;2023-04-29T10:29:57;143831.44;;;22.78;31.16
788;BME280;16074;42.708;23.312;2023-04-29T10:32:29;143769.34;;;22.53;32.09
788;BME280;16074;42.708;23.312;2023-04-29T10:35:16;143882.53;;;22.99;31.40
788;BME280;16074;42.708;23.312;2023-04-29T10:37:46;143971.47;;;23.35;30.59
788;BME280;16074;42.708;23.312;2023-04-29T10:40:16;144067.69;;;23.75;29.81
788;BME280;16074;42.708;23.312;2023-04-29T10:42:48;144003.13;;;23.48;30.22
788;BME280;16074;42.708;23.312;2023-04-29T10:45:26;143986.09;;;23.41;31.14
788;BME280;16074;42.708;23.312;2023-04-29T10:48:13;143775.41;;;22.55;31.07
788;BME280;16074;42.708;23.312;2023-04-29T10:51:00;143588.06;;;21.78;32.52
788;BME280;16074;42.708;23.312;2023-04-29T10:53:29;143380.09;;;20.93;32.25
788;BME280;16074;42.708;23.312;2023-04-29T10:56:02;143525.94;;;21.53;32.23
788;BME280;16074;42.708;23.312;2023-04-29T10:58:42;143528.38;;;21.54;31.62
788;BME280;16074;42.708;23.312;2023-04-29T11:01:13;143577.06;;;21.74;30.88
788;BME280;16074;42.708;23.312;2023-04-29T11:03:47;143567.34;;;21.70;31.64
788;BME280;16074;42.708;23.312;2023-04-29T11:06:16;143577.06;;;21.74;32.31
788;BME280;16074;42.708;23.312;2023-04-29T11:08:45;143534.47;;;21.57;32.14
788;BME280;16074;42.708;23.312;2023-04-29T11:11:13;143422.63;;;21.11;30.43
788;BME280;16074;42.708;23.312;2023-04-29T11:13:44;143404.38;;;21.03;30.36
788;BME280;16074;42.708;23.312;2023-04-29T11:16:14;143282.81;;;20.53;31.18
788;BME280;16074;42.708;23.312;2023-04-29T11:19:05;143305.94;;;20.63;31.67
788;BME280;16074;42.708;23.312;2023-04-29T11:21:34;143286.47;;;20.55;32.46
788;BME280;16074;42.708;23.312;2023-04-29T11:24:05;143179.59;;;20.11;31.65
788;BME280;16074;42.708;23.312;2023-04-29T11:26:34;143162.59;;;20.04;31.15
788;BME280;16074;42.708;23.312;2023-04-29T11:29:04;143207.53;;;20.23;32.17
788;BME280;16074;42.708;23.312;2023-04-29T11:31:35;143053.22;;;19.59;30.54
788;BME280;16074;42.708;23.312;2023-04-29T11:34:05;143139.44;;;19.95;29.16
788;BME280;16074;42.708;23.312;2023-04-29T11:36:34;143061.75;;;19.63;29.26
788;BME280;16074;42.708;23.312;2023-04-29T11:39:03;143015.63;;;19.44;30.61
788;BME280;16074;42.708;23.312;2023-04-29T11:41:31;143087.25;;;19.73;30.60
788;BME280;16074;42.708;23.312;2023-04-29T11:44:01;142997.44;;;19.36;31.63
788;BME280;16074;42.708;23.312;2023-04-29T11:46:30;142842.06;;;18.73;31.62
788;BME280;16074;42.708;23.312;2023-04-29T11:49:00;142868.75;;;18.84;31.23
788;BME280;16074;42.708;23.312;2023-04-29T11:51:29;142899.06;;;18.96;31.26
788;BME280;16074;42.708;23.312;2023-04-29T11:53:58;142923.34;;;19.06;31.52
788;BME280;16074;42.708;23.312;2023-04-29T11:56:27;142817.78;;;18.63;32.04
788;BME280;16074;42.708;23.312;2023-04-29T11:58:55;142877.22;;;18.87;32.31
788;BME280;16074;42.708;23.312;2023-04-29T12:01:24;142894.22;;;18.94;32.17
788;BME280;16074;42.708;23.312;2023-04-29T12:03:56;142917.25;;;19.04;32.11
788;BME280;16074;42.708;23.312;2023-04-29T12:06:28;142890.59;;;18.93;32.27
788;BME280;16074;42.708;23.312;2023-04-29T12:08:58;142914.81;;;19.03;32.34
788;BME280;16074;42.708;23.312;2023-04-29T12:11:27;142912.41;;;19.02;32.72
788;BME280;16074;42.708;23.312;2023-04-29T12:13:55;142906.34;;;18.99;32.76
788;BME280;16074;42.708;23.312;2023-04-29T12:16:24;142933.06;;;19.10;32.46
788;BME280;16074;42.708;23.312;2023-04-29T12:18:55;142804.47;;;18.57;32.73
788;BME280;16074;42.708;23.312;2023-04-29T12:21:24;142737.78;;;18.30;33.33
788;BME280;16074;42.708;23.312;2023-04-29T12:23:57;142746.25;;;18.33;33.57
788;BME280;16074;42.708;23.312;2023-04-29T12:26:27;142749.91;;;18.35;34.09
788;BME280;16074;42.708;23.312;2023-04-29T12:28:57;142626.19;;;17.84;35.02
788;BME280;16074;42.708;23.312;2023-04-29T12:31:32;142568.00;;;17.60;35.36
788;BME280;16074;42.708;23.312;2023-04-29T12:34:02;142540.16;;;17.49;36.08
788;BME280;16074;42.708;23.312;2023-04-29T12:36:35;142543.75;;;17.50;35.97
788;BME280;16074;42.708;23.312;2023-04-29T12:39:06;142504.97;;;17.34;35.57
788;BME280;16074;42.708;23.312;2023-04-29T12:41:37;142526.78;;;17.43;36.14
788;BME280;16074;42.708;23.312;2023-04-29T12:44:06;142605.56;;;17.76;36.05
788;BME280;16074;42.708;23.312;2023-04-29T12:46:35;142674.66;;;18.04;36.09
788;BME280;16074;42.708;23.312;2023-04-29T12:49:04;142691.63;;;18.11;34.77
788;BME280;16074;42.708;23.312;2023-04-29T12:51:34;142685.59;;;18.08;35.26
788;BME280;16074;42.708;23.312;2023-04-29T12:54:03;142637.09;;;17.89;35.55
788;BME280;16074;42.708;23.312;2023-04-29T12:56:34;142627.38;;;17.85;35.83
788;BME280;16074;42.708;23.312;2023-04-29T12:59:05;142664.94;;;18.00;36.22
788;BME280;16074;42.708;23.312;2023-04-29T13:01:34;142688.03;;;18.09;36.00
788;BME280;16074;42.708;23.312;2023-04-29T13:04:02;142746.25;;;18.33;36.07
788;BME280;16074;42.708;23.312;2023-04-29T13:06:32;142811.75;;;18.60;35.60
788;BME280;16074;42.708;23.312;2023-04-29T13:09:05;142785.06;;;18.49;35.80
788;BME280;16074;42.708;23.312;2023-04-29T13:11:45;142748.66;;;18.34;36.08
788;BME280;16074;42.708;23.312;2023-04-29T13:14:14;142742.63;;;18.32;35.98
788;BME280;16074;42.708;23.312;2023-04-29T13:16:42;142713.47;;;18.20;36.58
788;BME280;16074;42.708;23.312;2023-04-29T13:19:11;142726.84;;;18.25;37.09
788;BME280;16074;42.708;23.312;2023-04-29T13:21:59;142746.25;;;18.33;36.27
788;BME280;16074;42.708;23.312;2023-04-29T13:24:27;142793.53;;;18.53;36.02
788;BME280;16074;42.708;23.312;2023-04-29T13:26:57;142821.47;;;18.64;36.30